sensor_id;sensor_type;location;lat;lon;timestamp;temperature;humidity
4840;DHT22;2434;48.486;7.964;2022-08-19T00:00:06;22.50;78.90
4840;DHT22;2434;48.486;7.964;2022-08-19T00:02:35;22.50;79.00
4840;DHT22;2434;48.486;7.964;2022-08-19T00:05:18;22.50;78.70
4840;DHT22;2434;48.486;7.964;2022-08-19T00:07:49;22.50;78.70
4840;DHT22;2434;48.486;7.964;2022-08-19T00:10:18;22.50;78.60
4840;DHT22;2434;48.486;7.964;2022-08-19T00:12:47;22.30;79.40
4840;DHT22;2434;48.486;7.964;2022-08-19T00:15:18;22.20;80.00
4840;DHT22;2434;48.486;7.964;2022-08-19T00:17:48;22.30;79.80
4840;DHT22;2434;48.486;7.964;2022-08-19T00:20:20;22.30;79.40
4840;DHT22;2434;48.486;7.964;2022-08-19T00:22:49;22.20;80.00
4840;DHT22;2434;48.486;7.964;2022-08-19T00:25:19;22.20;80.00
4840;DHT22;2434;48.486;7.964;2022-08-19T00:27:56;22.30;79.60
4840;DHT22;2434;48.486;7.964;2022-08-19T00:30:25;22.20;79.40
4840;DHT22;2434;48.486;7.964;2022-08-19T00:32:54;22.20;79.60
4840;DHT22;2434;48.486;7.964;2022-08-19T00:35:25;22.20;80.10
4840;DHT22;2434;48.486;7.964;2022-08-19T00:37:54;22.10;80.50
4840;DHT22;2434;48.486;7.964;2022-08-19T00:40:23;22.00;81.30
4840;DHT22;2434;48.486;7.964;2022-08-19T00:42:52;22.00;81.40
4840;DHT22;2434;48.486;7.964;2022-08-19T00:45:23;22.00;81.50
4840;DHT22;2434;48.486;7.964;2022-08-19T00:47:52;21.90;82.00
4840;DHT22;2434;48.486;7.964;2022-08-19T00:50:22;22.00;82.00
4840;DHT22;2434;48.486;7.964;2022-08-19T00:52:52;21.80;82.70
4840;DHT22;2434;48.486;7.964;2022-08-19T00:55:24;21.90;82.70
4840;DHT22;2434;48.486;7.964;2022-08-19T00:57:56;21.80;82.80
4840;DHT22;2434;48.486;7.964;2022-08-19T01:00:27;21.70;83.50
4840;DHT22;2434;48.486;7.964;2022-08-19T01:02:56;21.60;85.00
4840;DHT22;2434;48.486;7.964;2022-08-19T01:05:26;21.60;84.40
4840;DHT22;2434;48.486;7.964;2022-08-19T01:07:59;21.70;84.10
4840;DHT22;2434;48.486;7.964;2022-08-19T01:10:30;21.70;83.90
4840;DHT22;2434;48.486;7.964;2022-08-19T01:13:03;21.70;84.00
4840;DHT22;2434;48.486;7.964;2022-08-19T01:15:35;21.60;84.40
4840;DHT22;2434;48.486;7.964;2022-08-19T01:18:08;21.60;84.50
4840;DHT22;2434;48.486;7.964;2022-08-19T01:20:37;21.50;84.70
4840;DHT22;2434;48.486;7.964;2022-08-19T01:23:09;21.60;84.20
4840;DHT22;2434;48.486;7.964;2022-08-19T01:25:42;21.60;83.70
4840;DHT22;2434;48.486;7.964;2022-08-19T01:28:17;21.70;83.70
4840;DHT22;2434;48.486;7.964;2022-08-19T01:31:00;21.70;83.20
4840;DHT22;2434;48.486;7.964;2022-08-19T01:33:34;21.70;83.20
4840;DHT22;2434;48.486;7.964;2022-08-19T01:36:09;21.80;82.50
4840;DHT22;2434;48.486;7.964;2022-08-19T01:38:41;21.80;82.00
4840;DHT22;2434;48.486;7.964;2022-08-19T01:41:11;21.80;82.10
4840;DHT22;2434;48.486;7.964;2022-08-19T01:43:40;21.80;82.00
4840;DHT22;2434;48.486;7.964;2022-08-19T01:46:28;21.80;82.20
4840;DHT22;2434;48.486;7.964;2022-08-19T01:48:57;21.70;83.00
4840;DHT22;2434;48.486;7.964;2022-08-19T01:51:25;21.60;82.80
4840;DHT22;2434;48.486;7.964;2022-08-19T01:53:56;21.60;82.90
4840;DHT22;2434;48.486;7.964;2022-08-19T01:56:25;21.60;83.10
4840;DHT22;2434;48.486;7.964;2022-08-19T01:58:56;21.60;83.20
4840;DHT22;2434;48.486;7.964;2022-08-19T02:01:26;21.50;83.00
4840;DHT22;2434;48.486;7.964;2022-08-19T02:03:57;21.50;82.90
4840;DHT22;2434;48.486;7.964;2022-08-19T02:06:25;21.60;82.80
4840;DHT22;2434;48.486;7.964;2022-08-19T02:08:55;21.50;83.20
4840;DHT22;2434;48.486;7.964;2022-08-19T02:11:25;21.40;84.50
4840;DHT22;2434;48.486;7.964;2022-08-19T02:13:55;21.30;84.40
4840;DHT22;2434;48.486;7.964;2022-08-19T02:16:23;21.20;85.20
4840;DHT22;2434;48.486;7.964;2022-08-19T02:18:52;21.20;85.30
4840;DHT22;2434;48.486;7.964;2022-08-19T02:21:21;21.30;84.70
4840;DHT22;2434;48.486;7.964;2022-08-19T02:23:50;21.40;84.00
4840;DHT22;2434;48.486;7.964;2022-08-19T02:26:20;21.50;83.10
4840;DHT22;2434;48.486;7.964;2022-08-19T02:28:48;21.60;82.20
4840;DHT22;2434;48.486;7.964;2022-08-19T02:31:20;21.60;82.50
4840;DHT22;2434;48.486;7.964;2022-08-19T02:33:51;21.50;83.10
4840;DHT22;2434;48.486;7.964;2022-08-19T02:36:24;21.50;82.50
4840;DHT22;2434;48.486;7.964;2022-08-19T02:38:53;21.60;82.10
4840;DHT22;2434;48.486;7.964;2022-08-19T02:41:24;21.60;81.70
4840;DHT22;2434;48.486;7.964;2022-08-19T02:43:54;21.60;81.60
4840;DHT22;2434;48.486;7.964;2022-08-19T02:46:45;21.60;81.50
4840;DHT22;2434;48.486;7.964;2022-08-19T02:49:13;21.70;81.60
4840;DHT22;2434;48.486;7.964;2022-08-19T02:51:44;21.60;81.70
4840;DHT22;2434;48.486;7.964;2022-08-19T02:54:14;21.60;81.50
4840;DHT22;2434;48.486;7.964;2022-08-19T02:56:44;21.60;81.80
4840;DHT22;2434;48.486;7.964;2022-08-19T02:59:13;21.60;81.70
4840;DHT22;2434;48.486;7.964;2022-08-19T03:01:41;21.60;81.80
4840;DHT22;2434;48.486;7.964;2022-08-19T03:04:14;21.10;86.70
4840;DHT22;2434;48.486;7.964;2022-08-19T03:06:45;21.40;83.80
4840;DHT22;2434;48.486;7.964;2022-08-19T03:09:15;21.50;82.70
4840;DHT22;2434;48.486;7.964;2022-08-19T03:11:45;21.60;82.10
4840;DHT22;2434;48.486;7.964;2022-08-19T03:14:15;21.70;81.90
4840;DHT22;2434;48.486;7.964;2022-08-19T03:16:46;21.70;81.50
4840;DHT22;2434;48.486;7.964;2022-08-19T03:19:16;21.70;81.30
4840;DHT22;2434;48.486;7.964;2022-08-19T03:21:46;21.70;81.10
4840;DHT22;2434;48.486;7.964;2022-08-19T03:24:15;21.80;80.90
4840;DHT22;2434;48.486;7.964;2022-08-19T03:26:47;21.70;80.60
4840;DHT22;2434;48.486;7.964;2022-08-19T03:29:16;21.70;80.50
4840;DHT22;2434;48.486;7.964;2022-08-19T03:31:56;21.60;81.50
4840;DHT22;2434;48.486;7.964;2022-08-19T03:34:26;21.70;81.20
4840;DHT22;2434;48.486;7.964;2022-08-19T03:36:56;21.00;85.60
4840;DHT22;2434;48.486;7.964;2022-08-19T03:39:26;21.20;84.90
4840;DHT22;2434;48.486;7.964;2022-08-19T03:41:58;21.30;83.50
4840;DHT22;2434;48.486;7.964;2022-08-19T03:44:48;21.50;82.70
4840;DHT22;2434;48.486;7.964;2022-08-19T03:47:16;21.50;82.20
4840;DHT22;2434;48.486;7.964;2022-08-19T03:49:44;21.50;82.50
4840;DHT22;2434;48.486;7.964;2022-08-19T03:52:13;21.50;82.90
4840;DHT22;2434;48.486;7.964;2022-08-19T03:54:42;21.50;83.00
4840;DHT22;2434;48.486;7.964;2022-08-19T03:57:12;21.50;82.90
4840;DHT22;2434;48.486;7.964;2022-08-19T03:59:40;21.50;82.60
4840;DHT22;2434;48.486;7.964;2022-08-19T04:02:10;21.50;82.90
4840;DHT22;2434;48.486;7.964;2022-08-19T04:04:40;21.50;83.30
4840;DHT22;2434;48.486;7.964;2022-08-19T04:07:11;21.40;83.40
4840;DHT22;2434;48.486;7.964;2022-08-19T04:09:42;21.40;83.30
4840;DHT22;2434;48.486;7.964;2022-08-19T04:12:12;21.40;83.40
4840;DHT22;2434;48.486;7.964;2022-08-19T04:14:41;21.40;83.40
4840;DHT22;2434;48.486;7.964;2022-08-19T04:17:09;21.40;83.50
4840;DHT22;2434;48.486;7.964;2022-08-19T04:19:40;21.40;83.60
4840;DHT22;2434;48.486;7.964;2022-08-19T04:22:09;21.40;83.20
4840;DHT22;2434;48.486;7.964;2022-08-19T04:24:39;21.50;82.90
4840;DHT22;2434;48.486;7.964;2022-08-19T04:27:07;21.50;82.90
4840;DHT22;2434;48.486;7.964;2022-08-19T04:29:37;21.50;82.70
4840;DHT22;2434;48.486;7.964;2022-08-19T04:32:07;21.40;82.60
4840;DHT22;2434;48.486;7.964;2022-08-19T04:34:36;21.40;83.60
4840;DHT22;2434;48.486;7.964;2022-08-19T04:37:26;21.40;82.40
4840;DHT22;2434;48.486;7.964;2022-08-19T04:40:04;21.40;82.50
4840;DHT22;2434;48.486;7.964;2022-08-19T04:42:50;21.40;82.50
4840;DHT22;2434;48.486;7.964;2022-08-19T04:45:20;21.40;82.90
4840;DHT22;2434;48.486;7.964;2022-08-19T04:47:49;21.40;82.90
4840;DHT22;2434;48.486;7.964;2022-08-19T04:50:24;21.40;82.90
4840;DHT22;2434;48.486;7.964;2022-08-19T04:52:53;21.30;83.00
4840;DHT22;2434;48.486;7.964;2022-08-19T04:55:23;21.30;83.40
4840;DHT22;2434;48.486;7.964;2022-08-19T04:57:53;21.30;83.50
4840;DHT22;2434;48.486;7.964;2022-08-19T05:00:23;21.20;83.50
4840;DHT22;2434;48.486;7.964;2022-08-19T05:02:51;21.10;84.00
4840;DHT22;2434;48.486;7.964;2022-08-19T05:05:20;21.10;84.20
4840;DHT22;2434;48.486;7.964;2022-08-19T05:07:48;21.10;83.70
4840;DHT22;2434;48.486;7.964;2022-08-19T05:10:16;21.10;83.70
4840;DHT22;2434;48.486;7.964;2022-08-19T05:12:45;21.10;83.70
4840;DHT22;2434;48.486;7.964;2022-08-19T05:15:13;21.10;83.60
4840;DHT22;2434;48.486;7.964;2022-08-19T05:17:43;21.10;83.70
4840;DHT22;2434;48.486;7.964;2022-08-19T05:20:31;21.10;83.20
4840;DHT22;2434;48.486;7.964;2022-08-19T05:23:17;21.10;83.00
4840;DHT22;2434;48.486;7.964;2022-08-19T05:25:49;21.10;82.90
4840;DHT22;2434;48.486;7.964;2022-08-19T05:28:18;21.10;83.10
4840;DHT22;2434;48.486;7.964;2022-08-19T05:30:47;21.10;83.20
4840;DHT22;2434;48.486;7.964;2022-08-19T05:33:19;21.10;83.50
4840;DHT22;2434;48.486;7.964;2022-08-19T05:35:47;21.10;83.50
4840;DHT22;2434;48.486;7.964;2022-08-19T05:38:16;21.10;83.30
4840;DHT22;2434;48.486;7.964;2022-08-19T05:40:45;21.20;83.30
4840;DHT22;2434;48.486;7.964;2022-08-19T05:43:15;21.10;83.90
4840;DHT22;2434;48.486;7.964;2022-08-19T05:45:44;21.00;83.70
4840;DHT22;2434;48.486;7.964;2022-08-19T05:48:13;21.10;83.70
4840;DHT22;2434;48.486;7.964;2022-08-19T05:50:43;21.10;83.50
4840;DHT22;2434;48.486;7.964;2022-08-19T05:53:12;21.10;83.00
4840;DHT22;2434;48.486;7.964;2022-08-19T05:55:43;21.20;82.80
4840;DHT22;2434;48.486;7.964;2022-08-19T05:58:11;21.20;82.40
4840;DHT22;2434;48.486;7.964;2022-08-19T06:00:39;21.30;82.20
4840;DHT22;2434;48.486;7.964;2022-08-19T06:03:10;21.30;81.80
4840;DHT22;2434;48.486;7.964;2022-08-19T06:05:40;21.30;81.70
4840;DHT22;2434;48.486;7.964;2022-08-19T06:08:20;21.30;82.30
4840;DHT22;2434;48.486;7.964;2022-08-19T06:11:12;21.30;81.60
4840;DHT22;2434;48.486;7.964;2022-08-19T06:13:40;21.40;81.30
4840;DHT22;2434;48.486;7.964;2022-08-19T06:16:08;21.40;81.20
4840;DHT22;2434;48.486;7.964;2022-08-19T06:18:37;21.40;81.70
4840;DHT22;2434;48.486;7.964;2022-08-19T06:21:05;21.30;81.80
4840;DHT22;2434;48.486;7.964;2022-08-19T06:23:35;21.30;82.10
4840;DHT22;2434;48.486;7.964;2022-08-19T06:26:03;21.30;82.20
4840;DHT22;2434;48.486;7.964;2022-08-19T06:28:31;21.30;82.30
4840;DHT22;2434;48.486;7.964;2022-08-19T06:31:06;21.20;82.90
4840;DHT22;2434;48.486;7.964;2022-08-19T06:33:34;21.20;82.70
4840;DHT22;2434;48.486;7.964;2022-08-19T06:36:04;21.20;84.00
4840;DHT22;2434;48.486;7.964;2022-08-19T06:38:34;21.20;83.50
4840;DHT22;2434;48.486;7.964;2022-08-19T06:41:04;21.20;82.80
4840;DHT22;2434;48.486;7.964;2022-08-19T06:43:33;21.30;82.50
4840;DHT22;2434;48.486;7.964;2022-08-19T06:46:10;21.20;82.60
4840;DHT22;2434;48.486;7.964;2022-08-19T06:48:41;21.30;82.30
4840;DHT22;2434;48.486;7.964;2022-08-19T06:51:12;21.30;82.10
4840;DHT22;2434;48.486;7.964;2022-08-19T06:53:47;21.40;81.90
4840;DHT22;2434;48.486;7.964;2022-08-19T06:56:17;21.40;81.90
4840;DHT22;2434;48.486;7.964;2022-08-19T06:58:45;21.40;81.60
4840;DHT22;2434;48.486;7.964;2022-08-19T07:01:15;21.40;81.70
4840;DHT22;2434;48.486;7.964;2022-08-19T07:03:43;21.30;82.00
4840;DHT22;2434;48.486;7.964;2022-08-19T07:06:16;21.30;82.30
4840;DHT22;2434;48.486;7.964;2022-08-19T07:09:07;21.30;81.80
4840;DHT22;2434;48.486;7.964;2022-08-19T07:11:35;21.30;82.50
4840;DHT22;2434;48.486;7.964;2022-08-19T07:14:04;21.30;85.10
4840;DHT22;2434;48.486;7.964;2022-08-19T07:16:46;21.30;83.40
4840;DHT22;2434;48.486;7.964;2022-08-19T07:19:15;21.40;82.60
4840;DHT22;2434;48.486;7.964;2022-08-19T07:21:47;21.50;82.50
4840;DHT22;2434;48.486;7.964;2022-08-19T07:24:18;21.20;83.50
4840;DHT22;2434;48.486;7.964;2022-08-19T07:26:46;21.30;83.80
4840;DHT22;2434;48.486;7.964;2022-08-19T07:29:18;21.10;84.70
4840;DHT22;2434;48.486;7.964;2022-08-19T07:31:51;21.20;83.50
4840;DHT22;2434;48.486;7.964;2022-08-19T07:34:23;21.00;84.10
4840;DHT22;2434;48.486;7.964;2022-08-19T07:36:52;21.20;83.10
4840;DHT22;2434;48.486;7.964;2022-08-19T07:39:24;21.10;83.30
4840;DHT22;2434;48.486;7.964;2022-08-19T07:41:54;21.20;82.80
4840;DHT22;2434;48.486;7.964;2022-08-19T07:44:23;21.00;84.30
4840;DHT22;2434;48.486;7.964;2022-08-19T07:46:54;21.10;83.70
4840;DHT22;2434;48.486;7.964;2022-08-19T07:49:24;21.20;83.10
4840;DHT22;2434;48.486;7.964;2022-08-19T07:51:54;21.30;82.00
4840;DHT22;2434;48.486;7.964;2022-08-19T07:54:26;21.40;81.90
4840;DHT22;2434;48.486;7.964;2022-08-19T07:56:56;21.50;82.00
4840;DHT22;2434;48.486;7.964;2022-08-19T07:59:25;21.30;80.60
4840;DHT22;2434;48.486;7.964;2022-08-19T08:01:55;21.20;80.30
4840;DHT22;2434;48.486;7.964;2022-08-19T08:04:24;21.00;81.10
4840;DHT22;2434;48.486;7.964;2022-08-19T08:07:10;20.90;82.60
4840;DHT22;2434;48.486;7.964;2022-08-19T08:09:59;20.80;83.30
4840;DHT22;2434;48.486;7.964;2022-08-19T08:12:32;20.80;82.40
4840;DHT22;2434;48.486;7.964;2022-08-19T08:15:06;20.80;83.00
4840;DHT22;2434;48.486;7.964;2022-08-19T08:17:39;20.60;83.20
4840;DHT22;2434;48.486;7.964;2022-08-19T08:20:17;20.60;83.50
4840;DHT22;2434;48.486;7.964;2022-08-19T08:22:47;20.60;84.10
4840;DHT22;2434;48.486;7.964;2022-08-19T08:25:35;20.60;82.10
4840;DHT22;2434;48.486;7.964;2022-08-19T08:28:04;20.60;79.10
4840;DHT22;2434;48.486;7.964;2022-08-19T08:30:37;20.70;77.10
4840;DHT22;2434;48.486;7.964;2022-08-19T08:33:11;20.70;76.80
4840;DHT22;2434;48.486;7.964;2022-08-19T08:35:40;20.80;76.00
4840;DHT22;2434;48.486;7.964;2022-08-19T08:38:09;20.70;74.70
4840;DHT22;2434;48.486;7.964;2022-08-19T08:40:44;20.70;74.30
4840;DHT22;2434;48.486;7.964;2022-08-19T08:43:24;20.70;74.30
4840;DHT22;2434;48.486;7.964;2022-08-19T08:46:01;20.80;75.40
4840;DHT22;2434;48.486;7.964;2022-08-19T08:48:40;20.90;74.20
4840;DHT22;2434;48.486;7.964;2022-08-19T08:51:16;21.00;73.70
4840;DHT22;2434;48.486;7.964;2022-08-19T08:53:49;21.00;75.30
4840;DHT22;2434;48.486;7.964;2022-08-19T08:56:23;20.90;72.60
4840;DHT22;2434;48.486;7.964;2022-08-19T08:58:58;20.90;73.70
4840;DHT22;2434;48.486;7.964;2022-08-19T09:01:28;21.10;73.20
4840;DHT22;2434;48.486;7.964;2022-08-19T09:03:56;21.00;73.90
4840;DHT22;2434;48.486;7.964;2022-08-19T09:06:35;21.10;72.70
4840;DHT22;2434;48.486;7.964;2022-08-19T09:09:14;21.10;73.70
4840;DHT22;2434;48.486;7.964;2022-08-19T09:11:55;21.10;71.50
4840;DHT22;2434;48.486;7.964;2022-08-19T09:14:33;21.10;71.30
4840;DHT22;2434;48.486;7.964;2022-08-19T09:17:20;21.10;71.80
4840;DHT22;2434;48.486;7.964;2022-08-19T09:19:59;21.10;71.50
4840;DHT22;2434;48.486;7.964;2022-08-19T09:22:31;21.20;71.30
4840;DHT22;2434;48.486;7.964;2022-08-19T09:25:00;21.20;70.50
4840;DHT22;2434;48.486;7.964;2022-08-19T09:27:30;21.20;70.60
4840;DHT22;2434;48.486;7.964;2022-08-19T09:30:21;21.40;71.50
4840;DHT22;2434;48.486;7.964;2022-08-19T09:32:51;21.50;70.70
4840;DHT22;2434;48.486;7.964;2022-08-19T09:35:21;21.60;71.10
4840;DHT22;2434;48.486;7.964;2022-08-19T09:37:50;21.60;70.50
4840;DHT22;2434;48.486;7.964;2022-08-19T09:40:26;21.70;69.10
4840;DHT22;2434;48.486;7.964;2022-08-19T09:42:57;21.70;69.80
4840;DHT22;2434;48.486;7.964;2022-08-19T09:45:36;21.70;69.20
4840;DHT22;2434;48.486;7.964;2022-08-19T09:48:04;21.70;68.70
4840;DHT22;2434;48.486;7.964;2022-08-19T09:50:33;21.70;68.30
4840;DHT22;2434;48.486;7.964;2022-08-19T09:53:01;21.90;68.90
4840;DHT22;2434;48.486;7.964;2022-08-19T09:55:32;21.90;68.40
4840;DHT22;2434;48.486;7.964;2022-08-19T09:58:02;21.80;67.00
4840;DHT22;2434;48.486;7.964;2022-08-19T10:00:30;21.90;69.70
4840;DHT22;2434;48.486;7.964;2022-08-19T10:02:59;22.00;67.10
4840;DHT22;2434;48.486;7.964;2022-08-19T10:05:29;22.10;64.80
4840;DHT22;2434;48.486;7.964;2022-08-19T10:08:25;22.10;66.80
4840;DHT22;2434;48.486;7.964;2022-08-19T10:10:54;22.40;64.70
4840;DHT22;2434;48.486;7.964;2022-08-19T10:13:28;22.50;64.60
4840;DHT22;2434;48.486;7.964;2022-08-19T10:16:03;22.40;62.50
4840;DHT22;2434;48.486;7.964;2022-08-19T10:18:32;22.60;62.40
4840;DHT22;2434;48.486;7.964;2022-08-19T10:21:05;22.70;64.20
4840;DHT22;2434;48.486;7.964;2022-08-19T10:23:38;22.90;61.60
4840;DHT22;2434;48.486;7.964;2022-08-19T10:26:07;22.80;61.60
4840;DHT22;2434;48.486;7.964;2022-08-19T10:28:37;22.70;62.80
4840;DHT22;2434;48.486;7.964;2022-08-19T10:31:12;22.70;63.20
4840;DHT22;2434;48.486;7.964;2022-08-19T10:33:41;22.70;63.30
4840;DHT22;2434;48.486;7.964;2022-08-19T10:36:21;22.80;64.10
4840;DHT22;2434;48.486;7.964;2022-08-19T10:38:52;22.80;62.90
4840;DHT22;2434;48.486;7.964;2022-08-19T10:41:27;22.80;64.10
4840;DHT22;2434;48.486;7.964;2022-08-19T10:44:01;22.80;62.80
4840;DHT22;2434;48.486;7.964;2022-08-19T10:46:32;22.90;63.40
4840;DHT22;2434;48.486;7.964;2022-08-19T10:49:02;22.90;60.80
4840;DHT22;2434;48.486;7.964;2022-08-19T10:51:31;22.90;59.90
4840;DHT22;2434;48.486;7.964;2022-08-19T10:54:18;22.90;60.70
4840;DHT22;2434;48.486;7.964;2022-08-19T10:56:59;22.90;59.90
4840;DHT22;2434;48.486;7.964;2022-08-19T10:59:29;22.90;58.70
4840;DHT22;2434;48.486;7.964;2022-08-19T11:02:03;23.00;60.50
4840;DHT22;2434;48.486;7.964;2022-08-19T11:04:31;23.00;60.70
4840;DHT22;2434;48.486;7.964;2022-08-19T11:07:01;23.00;63.40
4840;DHT22;2434;48.486;7.964;2022-08-19T11:09:30;23.00;63.40
4840;DHT22;2434;48.486;7.964;2022-08-19T11:12:00;23.00;63.40
4840;DHT22;2434;48.486;7.964;2022-08-19T11:14:33;23.00;61.90
4840;DHT22;2434;48.486;7.964;2022-08-19T11:17:02;23.10;62.50
4840;DHT22;2434;48.486;7.964;2022-08-19T11:19:31;23.10;58.60
4840;DHT22;2434;48.486;7.964;2022-08-19T11:22:00;23.20;58.90
4840;DHT22;2434;48.486;7.964;2022-08-19T11:24:30;23.20;59.50
4840;DHT22;2434;48.486;7.964;2022-08-19T11:27:05;23.20;58.70
4840;DHT22;2434;48.486;7.964;2022-08-19T11:29:37;23.10;59.80
4840;DHT22;2434;48.486;7.964;2022-08-19T11:32:07;23.20;60.70
4840;DHT22;2434;48.486;7.964;2022-08-19T11:34:37;23.10;61.00
4840;DHT22;2434;48.486;7.964;2022-08-19T11:37:06;23.10;60.10
4840;DHT22;2434;48.486;7.964;2022-08-19T11:39:36;23.20;61.10
4840;DHT22;2434;48.486;7.964;2022-08-19T11:42:06;23.30;58.90
4840;DHT22;2434;48.486;7.964;2022-08-19T11:44:50;23.20;58.00
4840;DHT22;2434;48.486;7.964;2022-08-19T11:47:19;23.30;58.60
4840;DHT22;2434;48.486;7.964;2022-08-19T11:49:47;23.50;58.20
4840;DHT22;2434;48.486;7.964;2022-08-19T11:52:15;23.50;57.20
4840;DHT22;2434;48.486;7.964;2022-08-19T11:54:44;23.50;57.70
4840;DHT22;2434;48.486;7.964;2022-08-19T11:57:12;23.50;56.90
4840;DHT22;2434;48.486;7.964;2022-08-19T11:59:49;23.40;57.70
4840;DHT22;2434;48.486;7.964;2022-08-19T12:02:18;23.50;59.10
4840;DHT22;2434;48.486;7.964;2022-08-19T12:04:46;23.50;58.00
4840;DHT22;2434;48.486;7.964;2022-08-19T12:07:15;23.50;56.80
4840;DHT22;2434;48.486;7.964;2022-08-19T12:09:43;23.50;57.20
4840;DHT22;2434;48.486;7.964;2022-08-19T12:12:14;23.60;56.20
4840;DHT22;2434;48.486;7.964;2022-08-19T12:14:43;23.60;54.60
4840;DHT22;2434;48.486;7.964;2022-08-19T12:17:14;23.60;56.10
4840;DHT22;2434;48.486;7.964;2022-08-19T12:19:43;23.80;54.20
4840;DHT22;2434;48.486;7.964;2022-08-19T12:22:11;23.70;53.80
4840;DHT22;2434;48.486;7.964;2022-08-19T12:24:39;23.70;55.30
4840;DHT22;2434;48.486;7.964;2022-08-19T12:27:08;23.80;53.80
4840;DHT22;2434;48.486;7.964;2022-08-19T12:29:39;23.80;53.40
4840;DHT22;2434;48.486;7.964;2022-08-19T12:32:08;23.90;56.70
4840;DHT22;2434;48.486;7.964;2022-08-19T12:34:39;24.00;55.40
4840;DHT22;2434;48.486;7.964;2022-08-19T12:37:08;24.00;54.20
4840;DHT22;2434;48.486;7.964;2022-08-19T12:39:39;24.20;56.10
4840;DHT22;2434;48.486;7.964;2022-08-19T12:42:09;24.30;55.10
4840;DHT22;2434;48.486;7.964;2022-08-19T12:44:40;24.40;52.70
4840;DHT22;2434;48.486;7.964;2022-08-19T12:47:12;24.60;52.80
4840;DHT22;2434;48.486;7.964;2022-08-19T12:49:42;24.70;51.80
4840;DHT22;2434;48.486;7.964;2022-08-19T12:52:22;24.80;51.40
4840;DHT22;2434;48.486;7.964;2022-08-19T12:54:50;25.00;48.60
4840;DHT22;2434;48.486;7.964;2022-08-19T12:57:21;25.00;48.20
4840;DHT22;2434;48.486;7.964;2022-08-19T13:00:00;25.10;52.10
4840;DHT22;2434;48.486;7.964;2022-08-19T13:02:31;25.20;54.20
4840;DHT22;2434;48.486;7.964;2022-08-19T13:05:09;25.40;52.50
4840;DHT22;2434;48.486;7.964;2022-08-19T13:07:39;25.50;50.90
4840;DHT22;2434;48.486;7.964;2022-08-19T13:10:10;25.50;51.60
4840;DHT22;2434;48.486;7.964;2022-08-19T13:12:39;25.40;50.90
4840;DHT22;2434;48.486;7.964;2022-08-19T13:15:09;25.60;51.90
4840;DHT22;2434;48.486;7.964;2022-08-19T13:17:41;25.70;51.20
4840;DHT22;2434;48.486;7.964;2022-08-19T13:20:11;25.80;49.40
4840;DHT22;2434;48.486;7.964;2022-08-19T13:22:40;26.00;49.00
4840;DHT22;2434;48.486;7.964;2022-08-19T13:25:09;26.00;48.30
4840;DHT22;2434;48.486;7.964;2022-08-19T13:27:38;25.80;48.10
4840;DHT22;2434;48.486;7.964;2022-08-19T13:30:09;25.60;49.70
4840;DHT22;2434;48.486;7.964;2022-08-19T13:32:56;25.60;49.00
4840;DHT22;2434;48.486;7.964;2022-08-19T13:35:46;25.50;49.70
4840;DHT22;2434;48.486;7.964;2022-08-19T13:38:17;25.50;50.00
4840;DHT22;2434;48.486;7.964;2022-08-19T13:40:46;25.50;49.50
4840;DHT22;2434;48.486;7.964;2022-08-19T13:43:14;25.60;49.10
4840;DHT22;2434;48.486;7.964;2022-08-19T13:45:50;25.60;49.10
4840;DHT22;2434;48.486;7.964;2022-08-19T13:48:24;25.60;49.00
4840;DHT22;2434;48.486;7.964;2022-08-19T13:50:55;25.70;49.30
4840;DHT22;2434;48.486;7.964;2022-08-19T13:53:23;25.80;48.40
4840;DHT22;2434;48.486;7.964;2022-08-19T13:55:52;25.80;47.90
4840;DHT22;2434;48.486;7.964;2022-08-19T13:58:21;25.70;49.90
4840;DHT22;2434;48.486;7.964;2022-08-19T14:00:50;25.60;52.70
4840;DHT22;2434;48.486;7.964;2022-08-19T14:03:19;25.30;57.60
4840;DHT22;2434;48.486;7.964;2022-08-19T14:05:47;25.40;55.90
4840;DHT22;2434;48.486;7.964;2022-08-19T14:08:17;25.30;61.10
4840;DHT22;2434;48.486;7.964;2022-08-19T14:10:45;25.30;59.00
4840;DHT22;2434;48.486;7.964;2022-08-19T14:13:17;25.20;57.50
4840;DHT22;2434;48.486;7.964;2022-08-19T14:15:46;25.30;56.60
4840;DHT22;2434;48.486;7.964;2022-08-19T14:18:16;25.40;57.30
4840;DHT22;2434;48.486;7.964;2022-08-19T14:20:45;25.40;56.50
4840;DHT22;2434;48.486;7.964;2022-08-19T14:23:13;25.40;57.70
4840;DHT22;2434;48.486;7.964;2022-08-19T14:25:44;25.40;57.90
4840;DHT22;2434;48.486;7.964;2022-08-19T14:28:13;25.30;55.80
4840;DHT22;2434;48.486;7.964;2022-08-19T14:30:41;25.30;54.00
4840;DHT22;2434;48.486;7.964;2022-08-19T14:33:11;25.30;55.70
4840;DHT22;2434;48.486;7.964;2022-08-19T14:35:40;25.20;56.00
4840;DHT22;2434;48.486;7.964;2022-08-19T14:38:16;25.10;55.60
4840;DHT22;2434;48.486;7.964;2022-08-19T14:41:08;25.10;55.80
4840;DHT22;2434;48.486;7.964;2022-08-19T14:43:37;25.20;56.10
4840;DHT22;2434;48.486;7.964;2022-08-19T14:46:06;25.10;55.10
4840;DHT22;2434;48.486;7.964;2022-08-19T14:48:36;25.20;55.10
4840;DHT22;2434;48.486;7.964;2022-08-19T14:51:08;25.20;56.10
4840;DHT22;2434;48.486;7.964;2022-08-19T14:53:36;25.20;57.60
4840;DHT22;2434;48.486;7.964;2022-08-19T14:56:09;25.10;58.80
4840;DHT22;2434;48.486;7.964;2022-08-19T14:58:37;25.20;59.50
4840;DHT22;2434;48.486;7.964;2022-08-19T15:01:07;25.20;59.40
4840;DHT22;2434;48.486;7.964;2022-08-19T15:03:36;25.20;57.60
4840;DHT22;2434;48.486;7.964;2022-08-19T15:06:05;25.10;56.20
4840;DHT22;2434;48.486;7.964;2022-08-19T15:08:39;25.10;56.20
4840;DHT22;2434;48.486;7.964;2022-08-19T15:11:12;25.10;54.80
4840;DHT22;2434;48.486;7.964;2022-08-19T15:13:41;25.00;54.70
4840;DHT22;2434;48.486;7.964;2022-08-19T15:16:10;25.00;54.20
4840;DHT22;2434;48.486;7.964;2022-08-19T15:18:44;25.00;54.00
4840;DHT22;2434;48.486;7.964;2022-08-19T15:21:14;25.00;53.80
4840;DHT22;2434;48.486;7.964;2022-08-19T15:23:54;24.90;53.10
4840;DHT22;2434;48.486;7.964;2022-08-19T15:26:24;25.00;53.80
4840;DHT22;2434;48.486;7.964;2022-08-19T15:28:54;25.00;53.70
4840;DHT22;2434;48.486;7.964;2022-08-19T15:31:23;25.00;55.00
4840;DHT22;2434;48.486;7.964;2022-08-19T15:33:55;25.00;54.60
4840;DHT22;2434;48.486;7.964;2022-08-19T15:36:25;25.00;54.80
4840;DHT22;2434;48.486;7.964;2022-08-19T15:38:54;25.00;55.50
4840;DHT22;2434;48.486;7.964;2022-08-19T15:41:29;25.00;55.30
4840;DHT22;2434;48.486;7.964;2022-08-19T15:43:59;25.00;56.00
4840;DHT22;2434;48.486;7.964;2022-08-19T15:46:31;25.00;55.00
4840;DHT22;2434;48.486;7.964;2022-08-19T15:49:00;25.10;43.20
4840;DHT22;2434;48.486;7.964;2022-08-19T15:51:30;25.10;45.50
4840;DHT22;2434;48.486;7.964;2022-08-19T15:54:02;25.40;42.70
4840;DHT22;2434;48.486;7.964;2022-08-19T15:56:32;25.40;42.00
4840;DHT22;2434;48.486;7.964;2022-08-19T15:59:33;25.50;40.90
4840;DHT22;2434;48.486;7.964;2022-08-19T16:02:20;25.70;39.80
4840;DHT22;2434;48.486;7.964;2022-08-19T16:05:10;25.80;38.40
4840;DHT22;2434;48.486;7.964;2022-08-19T16:07:56;25.90;38.20
4840;DHT22;2434;48.486;7.964;2022-08-19T16:10:24;26.30;37.40
4840;DHT22;2434;48.486;7.964;2022-08-19T16:12:56;26.10;38.80
4840;DHT22;2434;48.486;7.964;2022-08-19T16:15:25;26.20;37.70
4840;DHT22;2434;48.486;7.964;2022-08-19T16:17:54;26.30;35.80
4840;DHT22;2434;48.486;7.964;2022-08-19T16:20:24;26.30;36.40
4840;DHT22;2434;48.486;7.964;2022-08-19T16:22:54;26.30;37.10
4840;DHT22;2434;48.486;7.964;2022-08-19T16:25:24;26.40;35.40
4840;DHT22;2434;48.486;7.964;2022-08-19T16:27:57;26.40;34.20
4840;DHT22;2434;48.486;7.964;2022-08-19T16:30:35;26.30;35.50